createdAt,value
2022-12-27T00:00:00.790Z,14.4
2022-12-27T00:05:00.692Z,13.3
2022-12-27T00:10:00.727Z,16.6
2022-12-27T00:15:00.731Z,16.9
2022-12-27T00:20:11.934Z,16.6
2022-12-27T00:25:00.658Z,15.5
2022-12-27T00:30:00.706Z,15.8
2022-12-27T00:35:00.664Z,15.5
2022-12-27T00:40:00.695Z,16.6
2022-12-27T00:45:00.683Z,14.8
2022-12-27T00:50:00.675Z,16.2
2022-12-27T00:55:00.666Z,19.1
2022-12-27T01:00:10.670Z,19.4
2022-12-27T01:05:00.666Z,18.0
2022-12-27T01:10:00.704Z,9.7
2022-12-27T01:15:00.663Z,10.1
2022-12-27T01:20:00.735Z,14.8
2022-12-27T01:25:00.675Z,16.6
2022-12-27T01:30:00.736Z,14.8
2022-12-27T01:35:00.694Z,18.4
2022-12-27T01:40:00.730Z,16.2
2022-12-27T01:45:00.668Z,16.6
2022-12-27T01:50:00.755Z,12.2
2022-12-27T01:55:00.669Z,19.8
2022-12-27T02:00:00.697Z,16.9
2022-12-27T02:05:00.730Z,14.8
2022-12-27T02:10:00.712Z,18.4
2022-12-27T02:15:00.673Z,24.5
2022-12-27T02:20:00.727Z,14.8
2022-12-27T02:25:00.967Z,20.5
2022-12-27T02:30:00.852Z,15.1
2022-12-27T02:35:00.680Z,20.5
2022-12-27T02:40:00.738Z,16.6
2022-12-27T02:45:00.749Z,17.6
2022-12-27T02:50:00.695Z,14.8
2022-12-27T02:55:00.652Z,22.3
2022-12-27T03:00:00.728Z,12.6
2022-12-27T03:05:00.736Z,24.8
2022-12-27T03:10:00.761Z,23.8
2022-12-27T03:15:00.699Z,16.2
2022-12-27T03:20:00.850Z,11.5
2022-12-27T03:25:00.653Z,20.9
2022-12-27T03:30:00.709Z,18.0
2022-12-27T03:35:00.694Z,20.9
2022-12-27T03:40:00.675Z,19.8
2022-12-27T03:45:00.723Z,19.8
2022-12-27T03:50:00.729Z,19.4
2022-12-27T03:55:00.659Z,19.1
2022-12-27T04:00:00.689Z,24.1
2022-12-27T04:05:00.678Z,15.8
2022-12-27T04:10:00.731Z,14.8
2022-12-27T04:15:00.659Z,15.1
2022-12-27T04:20:00.683Z,9.7
2022-12-27T04:25:00.661Z,10.4
2022-12-27T04:30:00.714Z,18.0
2022-12-27T04:35:00.714Z,18.7
2022-12-27T04:40:00.722Z,16.6
2022-12-27T04:45:00.672Z,14.4
2022-12-27T04:50:00.693Z,16.6
2022-12-27T04:55:00.711Z,16.9
2022-12-27T05:00:00.709Z,8.3
2022-12-27T05:05:00.669Z,16.6
2022-12-27T05:10:00.810Z,11.5
2022-12-27T05:15:00.686Z,12.2
2022-12-27T05:20:00.700Z,11.9
2022-12-27T05:25:00.678Z,17.3
2022-12-27T05:30:00.706Z,16.6
2022-12-27T05:35:00.675Z,9.0
2022-12-27T05:40:00.665Z,15.8
2022-12-27T05:45:00.646Z,12.2
2022-12-27T05:50:00.699Z,20.9
2022-12-27T05:55:00.911Z,15.1
2022-12-27T06:00:00.708Z,20.5
2022-12-27T06:05:00.738Z,19.4
2022-12-27T06:10:00.729Z,19.4
2022-12-27T06:15:00.757Z,22.7
2022-12-27T06:20:00.727Z,23.4
2022-12-27T06:25:00.700Z,23.0
2022-12-27T06:30:00.732Z,22.3
2022-12-27T06:35:00.693Z,17.6
2022-12-27T06:40:00.678Z,19.8
2022-12-27T06:45:00.702Z,22.7
2022-12-27T06:50:00.710Z,16.6
2022-12-27T06:55:00.911Z,14.0
2022-12-27T07:00:00.719Z,15.1
2022-12-27T07:05:00.671Z,23.8
2022-12-27T07:10:00.723Z,19.8
2022-12-27T07:15:00.696Z,23.4
2022-12-27T07:20:00.689Z,16.9
2022-12-27T07:25:00.669Z,24.1
2022-12-27T07:30:00.702Z,23.4
2022-12-27T07:35:00.668Z,21.6
2022-12-27T07:40:00.713Z,15.5
2022-12-27T07:45:00.691Z,23.8
2022-12-27T07:50:00.700Z,19.1
2022-12-27T07:55:00.697Z,25.2
2022-12-27T08:00:00.841Z,18.4
2022-12-27T08:05:00.687Z,27.7
2022-12-27T08:10:00.703Z,22.3
2022-12-27T08:15:00.741Z,20.9
2022-12-27T08:20:00.683Z,16.2
2022-12-27T08:25:00.705Z,18.0
2022-12-27T08:30:00.723Z,33.1
2022-12-27T08:35:50.664Z,16.9
2022-12-27T08:40:03.542Z,22.7
2022-12-27T08:45:00.751Z,19.8
2022-12-27T08:50:00.731Z,22.7
2022-12-27T08:55:00.702Z,10.1
2022-12-27T09:00:00.773Z,26.6
2022-12-27T09:05:00.726Z,26.6
2022-12-27T09:10:00.733Z,16.6
2022-12-27T09:15:00.720Z,20.2
2022-12-27T09:20:00.745Z,21.2
2022-12-27T09:25:00.918Z,15.8
2022-12-27T09:30:00.710Z,18.0
2022-12-27T09:35:00.731Z,18.4
2022-12-27T09:40:00.766Z,21.2
2022-12-27T09:45:00.689Z,19.8
2022-12-27T09:50:00.705Z,19.1
2022-12-27T09:55:05.850Z,19.1
2022-12-27T10:00:00.751Z,22.0
2022-12-27T10:05:21.823Z,11.2
2022-12-27T10:10:00.687Z,19.4
2022-12-27T10:15:00.701Z,28.1
2022-12-27T10:20:00.739Z,13.7
2022-12-27T10:25:00.713Z,32.8
2022-12-27T10:30:00.752Z,23.4
2022-12-27T10:35:00.708Z,21.6
2022-12-27T10:40:00.712Z,16.9
2022-12-27T10:45:00.710Z,24.1
2022-12-27T10:50:00.730Z,21.6
2022-12-27T10:55:00.700Z,18.4
2022-12-27T11:00:00.772Z,19.4
2022-12-27T11:05:00.779Z,16.2
2022-12-27T11:10:00.754Z,20.5
2022-12-27T11:15:00.817Z,12.2
2022-12-27T11:20:00.695Z,24.5
2022-12-27T11:25:00.725Z,19.1
2022-12-27T11:30:00.703Z,15.1
2022-12-27T11:35:00.709Z,20.9
2022-12-27T11:40:00.702Z,17.3
2022-12-27T11:45:00.721Z,13.7
2022-12-27T11:50:00.672Z,15.8
2022-12-27T11:55:00.719Z,15.1
2022-12-27T12:00:00.723Z,19.4
2022-12-27T12:05:00.975Z,27.7
2022-12-27T12:10:00.741Z,20.5
2022-12-27T12:15:00.705Z,17.3
2022-12-27T12:20:00.683Z,17.3
2022-12-27T12:25:00.716Z,19.8
2022-12-27T12:30:00.702Z,20.2
2022-12-27T12:35:00.675Z,17.3
2022-12-27T12:40:00.724Z,19.8
2022-12-27T12:45:00.674Z,19.4
2022-12-27T12:50:00.716Z,18.4
2022-12-27T12:55:00.713Z,30.2
2022-12-27T13:00:00.805Z,19.4
2022-12-27T13:05:00.776Z,23.4
2022-12-27T13:10:00.751Z,13.7
2022-12-27T13:15:00.716Z,15.5
2022-12-27T13:20:00.704Z,14.4
2022-12-27T13:25:00.709Z,20.2
2022-12-27T13:30:07.832Z,23.8
2022-12-27T13:35:00.748Z,16.6
2022-12-27T13:40:00.735Z,14.8
2022-12-27T13:45:00.703Z,23.0
2022-12-27T13:50:00.727Z,22.3
2022-12-27T13:55:00.723Z,28.4
2022-12-27T14:00:00.711Z,25.9
2022-12-27T14:05:00.719Z,19.4
2022-12-27T14:10:00.710Z,13.7
2022-12-27T14:15:00.703Z,10.4
2022-12-27T14:20:00.727Z,10.8
2022-12-27T14:25:00.804Z,15.5
2022-12-27T14:30:06.963Z,14.0
2022-12-27T14:35:00.723Z,15.5
2022-12-27T14:40:00.712Z,16.9
2022-12-27T14:45:00.715Z,10.8
2022-12-27T14:50:00.730Z,17.3
2022-12-27T14:55:00.735Z,6.1
2022-12-27T15:00:00.938Z,11.9
2022-12-27T15:05:00.716Z,13.0
2022-12-27T15:10:00.697Z,13.3
2022-12-27T15:15:00.712Z,13.7
2022-12-27T15:20:00.753Z,11.2
2022-12-27T15:25:00.711Z,15.1
2022-12-27T15:30:00.719Z,13.7
2022-12-27T15:35:00.672Z,7.2
2022-12-27T15:40:00.716Z,8.6
2022-12-27T15:45:00.697Z,13.3
2022-12-27T15:50:00.721Z,16.9
2022-12-27T15:55:00.703Z,9.4
2022-12-27T16:00:00.886Z,13.0
2022-12-27T16:05:00.726Z,9.0
2022-12-27T16:10:00.904Z,12.6
2022-12-27T16:15:00.676Z,7.2
2022-12-27T16:20:00.712Z,7.6
2022-12-27T16:25:00.754Z,10.8
2022-12-27T16:30:00.722Z,7.6
2022-12-27T16:35:00.729Z,8.3
2022-12-27T16:40:00.757Z,9.7
2022-12-27T16:45:00.750Z,11.9
2022-12-27T16:50:00.746Z,6.5
2022-12-27T16:55:00.701Z,7.6
2022-12-27T17:00:00.723Z,10.1
2022-12-27T17:05:00.680Z,7.9
2022-12-27T17:10:00.706Z,5.0
2022-12-27T17:15:00.749Z,7.2
2022-12-27T17:20:00.741Z,15.8
2022-12-27T17:25:00.705Z,10.1
2022-12-27T17:30:01.063Z,13.3
2022-12-27T17:35:00.729Z,11.2
2022-12-27T17:40:00.703Z,14.0
2022-12-27T17:45:00.660Z,14.8
2022-12-27T17:50:00.667Z,22.0
2022-12-27T17:55:00.695Z,13.3
2022-12-27T18:00:00.904Z,15.8
2022-12-27T18:05:00.685Z,11.9
2022-12-27T18:10:00.756Z,6.8
2022-12-27T18:15:00.709Z,15.5
2022-12-27T18:20:00.724Z,12.6
2022-12-27T18:25:00.667Z,14.8
2022-12-27T18:30:00.732Z,6.8
2022-12-27T18:35:00.719Z,12.6
2022-12-27T18:40:00.832Z,7.6
2022-12-27T18:45:00.747Z,11.2
2022-12-27T18:50:00.702Z,8.6
2022-12-27T18:55:00.740Z,7.9
2022-12-27T19:00:00.710Z,10.8
2022-12-27T19:05:00.663Z,11.9
2022-12-27T19:10:00.718Z,11.2
2022-12-27T19:15:00.708Z,15.5
2022-12-27T19:20:00.763Z,6.1
2022-12-27T19:25:00.712Z,2.9
2022-12-27T19:30:00.824Z,5.0
2022-12-27T19:35:00.695Z,2.5
2022-12-27T19:40:00.756Z,4.3
2022-12-27T19:45:00.708Z,2.5
2022-12-27T19:50:00.698Z,5.8
2022-12-27T19:55:00.703Z,5.8
2022-12-27T20:00:12.654Z,2.9
2022-12-27T20:05:00.692Z,7.2
2022-12-27T20:10:00.734Z,5.0
2022-12-27T20:15:00.769Z,5.0
2022-12-27T20:20:00.747Z,6.1
2022-12-27T20:25:00.701Z,5.8
2022-12-27T20:30:00.942Z,5.8
2022-12-27T20:35:00.697Z,2.9
2022-12-27T20:40:00.704Z,3.2
2022-12-27T20:45:00.694Z,3.6
2022-12-27T20:50:00.690Z,7.6
2022-12-27T20:55:00.698Z,2.5
2022-12-27T21:00:00.756Z,2.2
2022-12-27T21:05:00.725Z,3.6
2022-12-27T21:10:00.737Z,3.2
2022-12-27T21:15:00.689Z,4.0
2022-12-27T21:20:00.744Z,4.3
2022-12-27T21:25:00.815Z,4.7
2022-12-27T21:30:00.694Z,5.0
2022-12-27T21:35:00.692Z,4.0
2022-12-27T21:40:00.742Z,2.2
2022-12-27T21:45:00.704Z,3.6
2022-12-27T21:50:00.730Z,5.0
2022-12-27T21:55:00.815Z,2.5
2022-12-27T22:00:00.741Z,4.7
2022-12-27T22:05:00.727Z,4.0
2022-12-27T22:10:00.669Z,5.0
2022-12-27T22:15:00.680Z,3.2
2022-12-27T22:20:00.708Z,8.3
2022-12-27T22:25:00.675Z,4.3
2022-12-27T22:30:00.687Z,6.8
2022-12-27T22:35:00.774Z,4.7
2022-12-27T22:40:00.850Z,6.1
2022-12-27T22:45:00.706Z,2.2
2022-12-27T22:50:00.733Z,4.0
2022-12-27T22:55:07.405Z,7.6
2022-12-27T23:00:01.085Z,5.4
2022-12-27T23:05:00.844Z,7.9
2022-12-27T23:10:00.725Z,7.2
2022-12-27T23:15:00.805Z,6.1
2022-12-27T23:20:00.700Z,5.4
2022-12-27T23:25:00.692Z,5.4
2022-12-27T23:30:00.692Z,5.8
2022-12-27T23:35:00.727Z,14.4
2022-12-27T23:40:00.687Z,10.4
2022-12-27T23:45:00.690Z,5.4
2022-12-27T23:50:00.708Z,4.7
2022-12-27T23:55:00.693Z,4.7
